createdAt,value
2022-08-14T00:03:00.102Z,24.20
2022-08-14T00:07:58.249Z,24.20
2022-08-14T00:12:57.907Z,24.20
2022-08-14T00:17:56.501Z,24.10
2022-08-14T00:22:56.346Z,24.00
2022-08-14T00:27:57.058Z,24.00
2022-08-14T00:32:56.357Z,23.90
2022-08-14T00:37:54.759Z,23.90
2022-08-14T00:42:56.314Z,23.80
2022-08-14T00:48:11.717Z,23.80
2022-08-14T00:53:10.679Z,23.70
2022-08-14T00:58:32.585Z,23.60
2022-08-14T01:03:39.491Z,23.60
2022-08-14T01:08:51.577Z,23.50
2022-08-14T01:14:00.845Z,23.50
2022-08-14T01:19:19.645Z,23.40
2022-08-14T01:24:24.858Z,23.30
2022-08-14T01:30:04.329Z,23.20
2022-08-14T01:35:18.267Z,23.10
2022-08-14T01:40:11.122Z,23.10
2022-08-14T01:45:12.807Z,23.10
2022-08-14T01:50:26.670Z,23.10
2022-08-14T01:55:29.201Z,23.10
2022-08-14T02:00:27.657Z,23.10
2022-08-14T02:05:29.441Z,23.10
2022-08-14T02:10:46.739Z,23.10
2022-08-14T02:15:48.703Z,23.10
2022-08-14T02:20:48.740Z,23.10
2022-08-14T02:25:54.585Z,23.10
2022-08-14T02:30:53.463Z,23.10
2022-08-14T02:36:04.949Z,23.10
2022-08-14T02:41:08.994Z,23.20
2022-08-14T02:46:12.541Z,23.20
2022-08-14T02:51:12.670Z,23.30
2022-08-14T02:56:30.319Z,23.30
2022-08-14T03:01:50.621Z,23.30
2022-08-14T03:07:06.141Z,23.20
2022-08-14T03:12:07.668Z,23.10
2022-08-14T03:17:10.362Z,23.10
2022-08-14T03:22:09.339Z,23.20
2022-08-14T03:27:17.064Z,23.20
2022-08-14T03:32:15.203Z,23.20
2022-08-14T03:37:51.035Z,23.30
2022-08-14T03:42:36.123Z,23.20
2022-08-14T03:47:46.405Z,23.10
2022-08-14T03:52:55.558Z,23.10
2022-08-14T03:57:55.864Z,23.10
2022-08-14T04:02:55.295Z,23.10
2022-08-14T04:08:08.294Z,23.00
2022-08-14T04:13:12.941Z,23.00
2022-08-14T04:18:11.896Z,23.00
2022-08-14T04:23:18.420Z,23.00
2022-08-14T04:29:06.944Z,23.10
2022-08-14T04:33:42.278Z,23.00
2022-08-14T04:38:57.969Z,23.10
2022-08-14T04:43:59.081Z,23.00
2022-08-14T04:48:59.872Z,23.00
2022-08-14T04:53:58.302Z,23.10
2022-08-14T04:59:01.552Z,23.20
2022-08-14T05:04:00.397Z,23.30
2022-08-14T05:09:00.143Z,23.40
2022-08-14T05:14:34.597Z,23.60
2022-08-14T05:19:27.373Z,23.70
2022-08-14T05:24:27.376Z,23.80
2022-08-14T05:29:27.440Z,24.00
2022-08-14T05:34:31.695Z,24.10
2022-08-14T05:39:30.255Z,24.40
2022-08-14T05:44:31.009Z,24.60
2022-08-14T05:49:32.980Z,24.70
2022-08-14T05:54:35.573Z,24.80
2022-08-14T05:59:36.523Z,25.00
2022-08-14T06:04:34.959Z,25.20
2022-08-14T06:09:35.548Z,25.40
2022-08-14T06:14:39.752Z,25.60
2022-08-14T06:19:37.757Z,25.90
2022-08-14T06:24:35.889Z,26.00
2022-08-14T06:29:35.001Z,26.10
2022-08-14T06:35:03.561Z,26.20
2022-08-14T06:39:57.203Z,26.40
2022-08-14T06:44:55.207Z,26.50
2022-08-14T06:49:57.993Z,26.60
2022-08-14T06:54:57.030Z,26.80
2022-08-14T06:59:55.055Z,26.90
2022-08-14T07:05:12.431Z,26.90
2022-08-14T07:10:22.062Z,27.00
2022-08-14T07:15:23.244Z,27.00
2022-08-14T07:20:30.710Z,27.10
2022-08-14T07:25:32.461Z,27.30
2022-08-14T07:30:33.702Z,27.50
2022-08-14T07:35:37.525Z,27.70
2022-08-14T07:40:41.310Z,27.90
2022-08-14T07:45:43.642Z,28.00
2022-08-14T07:50:45.413Z,28.20
2022-08-14T07:55:45.276Z,28.30
2022-08-14T08:00:44.281Z,28.40
2022-08-14T08:05:52.723Z,28.60
2022-08-14T08:11:02.546Z,28.70
2022-08-14T08:16:03.127Z,28.70
2022-08-14T08:21:02.893Z,28.80
2022-08-14T08:26:01.101Z,29.10
2022-08-14T08:31:01.159Z,29.30
2022-08-14T08:36:00.565Z,29.70
2022-08-14T08:41:01.464Z,30.00
2022-08-14T08:46:01.491Z,30.40
2022-08-14T08:51:03.448Z,30.50
2022-08-14T08:56:05.167Z,30.80
2022-08-14T09:01:03.533Z,31.20
2022-08-14T09:06:03.797Z,31.50
2022-08-14T09:11:18.474Z,31.90
2022-08-14T09:16:21.894Z,32.50
2022-08-14T09:21:23.837Z,33.20
2022-08-14T09:26:23.642Z,33.80
2022-08-14T09:31:27.925Z,34.30
2022-08-14T09:36:56.661Z,34.70
2022-08-14T09:42:22.026Z,34.80
2022-08-14T09:47:52.452Z,34.80
2022-08-14T09:52:55.055Z,34.80
2022-08-14T09:58:19.258Z,34.90
2022-08-14T10:03:33.390Z,35.60
2022-08-14T10:08:42.380Z,36.00
2022-08-14T10:13:53.173Z,36.30
2022-08-14T10:19:02.541Z,36.80
2022-08-14T10:24:00.992Z,37.00
2022-08-14T10:29:19.591Z,36.90
2022-08-14T10:34:35.517Z,37.10
2022-08-14T10:39:35.313Z,37.60
2022-08-14T10:44:38.692Z,37.90
2022-08-14T10:49:39.671Z,38.00
2022-08-14T10:54:42.156Z,37.50
2022-08-14T10:59:46.219Z,37.30
2022-08-14T11:04:45.903Z,37.20
2022-08-14T11:09:54.777Z,37.20
2022-08-14T11:15:01.816Z,37.20
2022-08-14T11:20:03.124Z,37.30
2022-08-14T11:25:06.468Z,37.20
2022-08-14T11:30:51.678Z,37.30
2022-08-14T11:35:44.006Z,37.20
2022-08-14T11:40:47.248Z,37.30
2022-08-14T11:45:50.316Z,37.40
2022-08-14T11:50:54.403Z,37.40
2022-08-14T11:55:58.307Z,37.60
2022-08-14T12:01:01.808Z,37.50
2022-08-14T12:06:06.421Z,37.60
2022-08-14T12:11:24.416Z,37.80
2022-08-14T12:16:25.020Z,37.70
2022-08-14T12:21:25.672Z,37.60
2022-08-14T12:26:39.616Z,37.60
2022-08-14T12:31:44.946Z,37.90
2022-08-14T12:36:45.163Z,37.90
2022-08-14T12:41:53.930Z,37.80
2022-08-14T12:47:06.241Z,37.70
2022-08-14T12:52:16.986Z,37.80
2022-08-14T12:57:19.677Z,37.90
2022-08-14T13:02:26.953Z,37.70
2022-08-14T13:07:32.403Z,37.40
2022-08-14T13:12:39.857Z,37.10
2022-08-14T13:17:54.173Z,37.10
2022-08-14T13:22:56.210Z,36.60
2022-08-14T13:27:57.627Z,36.50
2022-08-14T13:33:00.110Z,36.60
2022-08-14T13:37:59.492Z,36.80
2022-08-14T13:42:57.834Z,36.70
2022-08-14T13:47:58.421Z,36.30
2022-08-14T13:53:01.323Z,36.20
2022-08-14T13:58:05.250Z,36.20
2022-08-14T14:03:06.395Z,36.60
2022-08-14T14:08:06.943Z,36.80
2022-08-14T14:13:05.906Z,37.00
2022-08-14T14:18:05.449Z,37.00
2022-08-14T14:23:24.377Z,36.90
2022-08-14T14:28:31.114Z,36.30
2022-08-14T14:33:50.732Z,36.30
2022-08-14T14:38:52.849Z,36.60
2022-08-14T14:43:52.185Z,36.70
2022-08-14T14:48:54.675Z,37.00
2022-08-14T14:53:53.692Z,37.10
2022-08-14T14:58:52.216Z,37.10
2022-08-14T15:03:54.247Z,37.10
2022-08-14T15:08:58.133Z,37.10
2022-08-14T15:13:57.768Z,37.10
2022-08-14T15:18:57.168Z,37.00
2022-08-14T15:23:55.739Z,37.00
2022-08-14T15:29:03.164Z,37.20
2022-08-14T15:34:43.692Z,37.10
2022-08-14T15:39:34.120Z,37.10
2022-08-14T15:44:36.732Z,37.20
2022-08-14T15:49:44.293Z,37.10
2022-08-14T15:54:43.268Z,37.10
2022-08-14T15:59:58.881Z,37.00
2022-08-14T16:04:58.342Z,36.80
2022-08-14T16:10:27.562Z,36.60
2022-08-14T16:15:15.931Z,36.40
2022-08-14T16:20:42.445Z,36.20
2022-08-14T16:25:37.255Z,36.20
2022-08-14T16:30:35.818Z,36.00
2022-08-14T16:35:41.934Z,36.00
2022-08-14T16:41:14.492Z,36.00
2022-08-14T16:46:15.414Z,36.00
2022-08-14T16:51:17.700Z,35.90
2022-08-14T16:56:23.802Z,35.80
2022-08-14T17:01:27.170Z,35.60
2022-08-14T17:06:39.594Z,35.50
2022-08-14T17:11:54.580Z,35.40
2022-08-14T17:16:57.858Z,35.20
2022-08-14T17:21:57.413Z,35.00
2022-08-14T17:26:55.980Z,34.80
2022-08-14T17:32:01.803Z,34.50
2022-08-14T17:37:02.592Z,34.10
2022-08-14T17:42:03.002Z,33.70
2022-08-14T17:47:03.120Z,33.40
2022-08-14T17:52:07.537Z,33.20
2022-08-14T17:57:17.398Z,32.90
2022-08-14T18:02:19.470Z,32.70
2022-08-14T18:07:59.459Z,32.50
2022-08-14T18:12:43.931Z,32.40
2022-08-14T18:17:50.610Z,32.20
2022-08-14T18:22:53.246Z,32.10
2022-08-14T18:27:52.461Z,32.00
2022-08-14T18:32:56.155Z,31.80
2022-08-14T18:38:26.315Z,31.70
2022-08-14T18:43:44.833Z,31.60
2022-08-14T18:49:15.945Z,31.30
2022-08-14T18:54:32.813Z,30.90
2022-08-14T18:59:42.413Z,30.60
2022-08-14T19:04:42.603Z,30.30
2022-08-14T19:09:57.852Z,30.00
2022-08-14T19:15:08.755Z,29.70
2022-08-14T19:20:08.178Z,29.60
2022-08-14T19:25:08.979Z,29.60
2022-08-14T19:30:24.317Z,29.50
2022-08-14T19:35:55.488Z,29.50
2022-08-14T19:41:01.423Z,29.30
2022-08-14T19:45:59.710Z,29.40
2022-08-14T19:51:02.451Z,29.40
2022-08-14T19:56:04.893Z,29.30
2022-08-14T20:01:08.537Z,29.20
2022-08-14T20:06:08.826Z,29.20
2022-08-14T20:11:44.666Z,29.10
2022-08-14T20:16:49.373Z,29.10
2022-08-14T20:22:00.551Z,29.10
2022-08-14T20:27:21.017Z,29.00
2022-08-14T20:32:19.844Z,29.00
2022-08-14T20:37:22.805Z,29.00
2022-08-14T20:42:49.242Z,28.90
2022-08-14T20:47:51.059Z,28.80
2022-08-14T20:52:52.087Z,28.70
2022-08-14T20:57:54.867Z,28.60
2022-08-14T21:02:58.218Z,28.60
2022-08-14T21:08:07.873Z,28.60
2022-08-14T21:14:09.092Z,28.60
2022-08-14T21:18:47.306Z,28.60
2022-08-14T21:23:48.227Z,28.50
2022-08-14T21:28:53.626Z,28.50
2022-08-14T21:33:56.348Z,28.50
2022-08-14T21:38:55.215Z,28.40
2022-08-14T21:44:17.827Z,28.30
2022-08-14T21:49:22.815Z,28.30
2022-08-14T21:54:30.352Z,28.20
2022-08-14T21:59:34.108Z,28.20
2022-08-14T22:04:40.352Z,28.20
2022-08-14T22:09:38.984Z,28.20
2022-08-14T22:14:45.114Z,28.10
2022-08-14T22:19:54.456Z,28.00
2022-08-14T22:24:53.930Z,28.10
2022-08-14T22:29:58.557Z,28.00
2022-08-14T22:34:58.058Z,27.90
2022-08-14T22:40:54.931Z,27.80
2022-08-14T22:45:14.948Z,27.70
2022-08-14T22:50:31.832Z,27.70
2022-08-14T22:55:31.365Z,27.60
2022-08-14T23:00:35.751Z,27.50
2022-08-14T23:05:40.032Z,27.40
2022-08-14T23:10:51.201Z,27.30
2022-08-14T23:15:49.141Z,27.30
2022-08-14T23:20:48.442Z,27.20
2022-08-14T23:25:59.395Z,27.10
2022-08-14T23:31:08.505Z,27.10
2022-08-14T23:36:31.928Z,27.00
2022-08-14T23:41:27.582Z,26.90
2022-08-14T23:46:45.205Z,26.90
2022-08-14T23:51:44.546Z,26.80
2022-08-14T23:56:42.793Z,26.80
